sensor_id;sensor_type;location;lat;lon;timestamp;pressure;altitude;pressure_sealevel;temperature;humidity
55070;BME280;40967;52.070;8.596;2023-03-11T00:00:56;99153.19;;;-0.20;100.00
55070;BME280;40967;52.070;8.596;2023-03-11T00:03:21;99156.09;;;-0.33;100.00
55070;BME280;40967;52.070;8.596;2023-03-11T00:05:47;99175.88;;;-0.17;100.00
55070;BME280;40967;52.070;8.596;2023-03-11T00:08:18;99179.47;;;-0.12;100.00
55070;BME280;40967;52.070;8.596;2023-03-11T00:10:46;99166.41;;;-0.25;100.00
55070;BME280;40967;52.070;8.596;2023-03-11T00:13:14;99180.19;;;-0.16;100.00
55070;BME280;40967;52.070;8.596;2023-03-11T00:15:41;99178.22;;;-0.21;100.00
55070;BME280;40967;52.070;8.596;2023-03-11T00:18:06;99200.22;;;-0.14;100.00
55070;BME280;40967;52.070;8.596;2023-03-11T00:20:34;99203.59;;;-0.18;100.00
55070;BME280;40967;52.070;8.596;2023-03-11T00:23:00;99204.06;;;-0.21;100.00
55070;BME280;40967;52.070;8.596;2023-03-11T00:25:28;99220.41;;;-0.18;100.00
55070;BME280;40967;52.070;8.596;2023-03-11T00:27:55;99212.63;;;-0.19;100.00
55070;BME280;40967;52.070;8.596;2023-03-11T00:30:21;99228.63;;;-0.19;100.00
55070;BME280;40967;52.070;8.596;2023-03-11T00:32:48;99234.19;;;-0.21;100.00
55070;BME280;40967;52.070;8.596;2023-03-11T00:35:20;99245.53;;;-0.25;100.00
55070;BME280;40967;52.070;8.596;2023-03-11T00:37:47;99248.44;;;-0.27;100.00
55070;BME280;40967;52.070;8.596;2023-03-11T00:40:17;99246.09;;;-0.35;100.00
55070;BME280;40967;52.070;8.596;2023-03-11T00:42:43;99238.56;;;-0.38;100.00
55070;BME280;40967;52.070;8.596;2023-03-11T00:45:09;99257.63;;;-0.23;100.00
55070;BME280;40967;52.070;8.596;2023-03-11T00:47:35;99273.13;;;-0.20;100.00
55070;BME280;40967;52.070;8.596;2023-03-11T00:50:00;99273.38;;;-0.21;100.00
55070;BME280;40967;52.070;8.596;2023-03-11T00:52:26;99258.03;;;-0.37;100.00
55070;BME280;40967;52.070;8.596;2023-03-11T00:54:53;99292.09;;;-0.28;100.00
55070;BME280;40967;52.070;8.596;2023-03-11T00:57:18;99297.66;;;-0.29;100.00
55070;BME280;40967;52.070;8.596;2023-03-11T00:59:44;99285.50;;;-0.37;100.00
55070;BME280;40967;52.070;8.596;2023-03-11T01:02:09;99290.16;;;-0.32;100.00
55070;BME280;40967;52.070;8.596;2023-03-11T01:04:34;99299.19;;;-0.33;100.00
55070;BME280;40967;52.070;8.596;2023-03-11T01:07:00;99302.53;;;-0.38;100.00
55070;BME280;40967;52.070;8.596;2023-03-11T01:09:25;99313.53;;;-0.34;100.00
55070;BME280;40967;52.070;8.596;2023-03-11T01:11:50;99321.66;;;-0.29;100.00
55070;BME280;40967;52.070;8.596;2023-03-11T01:14:17;99310.06;;;-0.35;100.00
55070;BME280;40967;52.070;8.596;2023-03-11T01:16:42;99328.41;;;-0.27;100.00
55070;BME280;40967;52.070;8.596;2023-03-11T01:19:07;99337.41;;;-0.28;100.00
55070;BME280;40967;52.070;8.596;2023-03-11T01:21:33;99332.44;;;-0.24;100.00
55070;BME280;40967;52.070;8.596;2023-03-11T01:23:58;99339.06;;;-0.27;100.00
55070;BME280;40967;52.070;8.596;2023-03-11T01:26:23;99337.41;;;-0.28;100.00
55070;BME280;40967;52.070;8.596;2023-03-11T01:28:49;99339.88;;;-0.26;100.00
55070;BME280;40967;52.070;8.596;2023-03-11T01:31:14;99335.34;;;-0.26;100.00
55070;BME280;40967;52.070;8.596;2023-03-11T01:33:39;99326.31;;;-0.25;100.00
55070;BME280;40967;52.070;8.596;2023-03-11T01:36:05;99327.69;;;-0.22;100.00
55070;BME280;40967;52.070;8.596;2023-03-11T01:38:31;99338.13;;;-0.21;100.00
55070;BME280;40967;52.070;8.596;2023-03-11T01:40:56;99344.50;;;-0.22;100.00
55070;BME280;40967;52.070;8.596;2023-03-11T01:49:22;99363.41;;;-0.23;100.00
55070;BME280;40967;52.070;8.596;2023-03-11T01:51:50;99372.13;;;-0.16;100.00
55070;BME280;40967;52.070;8.596;2023-03-11T01:54:24;99371.88;;;-0.15;100.00
55070;BME280;40967;52.070;8.596;2023-03-11T01:56:51;99361.56;;;-0.23;100.00
55070;BME280;40967;52.070;8.596;2023-03-11T01:59:22;99368.03;;;-0.19;100.00
55070;BME280;40967;52.070;8.596;2023-03-11T02:01:54;99359.91;;;-0.24;100.00
55070;BME280;40967;52.070;8.596;2023-03-11T02:04:21;99363.63;;;-0.25;100.00
55070;BME280;40967;52.070;8.596;2023-03-11T02:06:47;99380.69;;;-0.14;100.00
55070;BME280;40967;52.070;8.596;2023-03-11T02:09:13;99368.50;;;-0.22;100.00
55070;BME280;40967;52.070;8.596;2023-03-11T02:11:39;99385.44;;;-0.16;100.00
55070;BME280;40967;52.070;8.596;2023-03-11T02:14:06;99397.81;;;-0.22;100.00
55070;BME280;40967;52.070;8.596;2023-03-11T02:16:32;99401.31;;;-0.21;100.00
55070;BME280;40967;52.070;8.596;2023-03-11T02:18:59;99393.88;;;-0.19;100.00
55070;BME280;40967;52.070;8.596;2023-03-11T02:21:30;99395.25;;;-0.28;100.00
55070;BME280;40967;52.070;8.596;2023-03-11T02:28:50;99401.53;;;-0.23;100.00
55070;BME280;40967;52.070;8.596;2023-03-11T02:31:17;99400.13;;;-0.25;100.00
55070;BME280;40967;52.070;8.596;2023-03-11T02:33:44;99393.97;;;-0.26;100.00
55070;BME280;40967;52.070;8.596;2023-03-11T02:36:31;99394.34;;;-0.22;100.00
55070;BME280;40967;52.070;8.596;2023-03-11T02:38:57;99393.53;;;-0.23;100.00
55070;BME280;40967;52.070;8.596;2023-03-11T02:41:22;99392.94;;;-0.25;100.00
55070;BME280;40967;52.070;8.596;2023-03-11T02:43:48;99393.75;;;-0.24;100.00
55070;BME280;40967;52.070;8.596;2023-03-11T02:46:14;99360.19;;;-0.43;100.00
55070;BME280;40967;52.070;8.596;2023-03-11T02:48:39;99382.59;;;-0.33;100.00
55070;BME280;40967;52.070;8.596;2023-03-11T02:51:06;99405.47;;;-0.25;100.00
55070;BME280;40967;52.070;8.596;2023-03-11T02:53:35;99401.03;;;-0.31;100.00
55070;BME280;40967;52.070;8.596;2023-03-11T02:56:02;99404.28;;;-0.29;100.00
55070;BME280;40967;52.070;8.596;2023-03-11T02:58:27;99408.34;;;-0.27;100.00
55070;BME280;40967;52.070;8.596;2023-03-11T03:00:52;99409.97;;;-0.26;100.00
55070;BME280;40967;52.070;8.596;2023-03-11T03:03:18;99413.69;;;-0.27;100.00
55070;BME280;40967;52.070;8.596;2023-03-11T03:05:43;99419.84;;;-0.26;100.00
55070;BME280;40967;52.070;8.596;2023-03-11T03:08:10;99417.38;;;-0.28;100.00
55070;BME280;40967;52.070;8.596;2023-03-11T03:10:35;99413.63;;;-0.38;100.00
55070;BME280;40967;52.070;8.596;2023-03-11T03:13:01;99432.06;;;-0.37;100.00
55070;BME280;40967;52.070;8.596;2023-03-11T03:15:26;99444.22;;;-0.41;100.00
55070;BME280;40967;52.070;8.596;2023-03-11T03:17:52;99444.22;;;-0.41;100.00
55070;BME280;40967;52.070;8.596;2023-03-11T03:20:17;99443.16;;;-0.40;100.00
55070;BME280;40967;52.070;8.596;2023-03-11T03:22:43;99452.19;;;-0.41;100.00
55070;BME280;40967;52.070;8.596;2023-03-11T03:25:09;99451.16;;;-0.40;100.00
55070;BME280;40967;52.070;8.596;2023-03-11T03:27:35;99447.75;;;-0.47;100.00
55070;BME280;40967;52.070;8.596;2023-03-11T03:30:00;99456.22;;;-0.50;100.00
55070;BME280;40967;52.070;8.596;2023-03-11T03:32:26;99452.72;;;-0.50;100.00
55070;BME280;40967;52.070;8.596;2023-03-11T03:34:51;99465.53;;;-0.41;100.00
55070;BME280;40967;52.070;8.596;2023-03-11T03:37:22;99471.22;;;-0.37;100.00
55070;BME280;40967;52.070;8.596;2023-03-11T03:39:47;99472.84;;;-0.36;100.00
55070;BME280;40967;52.070;8.596;2023-03-11T03:42:13;99485.00;;;-0.40;100.00
55070;BME280;40967;52.070;8.596;2023-03-11T03:44:38;99474.84;;;-0.50;100.00
55070;BME280;40967;52.070;8.596;2023-03-11T03:47:04;99492.41;;;-0.42;100.00
55070;BME280;40967;52.070;8.596;2023-03-11T03:49:29;99499.19;;;-0.46;100.00
55070;BME280;40967;52.070;8.596;2023-03-11T03:51:55;99494.47;;;-0.44;100.00
55070;BME280;40967;52.070;8.596;2023-03-11T03:54:20;99504.31;;;-0.45;100.00
55070;BME280;40967;52.070;8.596;2023-03-11T03:56:45;99493.06;;;-0.47;100.00
55070;BME280;40967;52.070;8.596;2023-03-11T03:59:11;99493.78;;;-0.40;100.00
55070;BME280;40967;52.070;8.596;2023-03-11T04:01:37;99505.25;;;-0.39;100.00
55070;BME280;40967;52.070;8.596;2023-03-11T04:04:02;99506.50;;;-0.42;100.00
55070;BME280;40967;52.070;8.596;2023-03-11T04:06:28;99514.38;;;-0.47;100.00
55070;BME280;40967;52.070;8.596;2023-03-11T04:08:53;99513.72;;;-0.42;100.00
55070;BME280;40967;52.070;8.596;2023-03-11T04:11:19;99512.28;;;-0.45;100.00
55070;BME280;40967;52.070;8.596;2023-03-11T04:13:45;99522.50;;;-0.42;100.00
55070;BME280;40967;52.070;8.596;2023-03-11T04:16:19;99518.91;;;-0.47;100.00
55070;BME280;40967;52.070;8.596;2023-03-11T04:18:45;99530.72;;;-0.43;100.00
55070;BME280;40967;52.070;8.596;2023-03-11T04:21:11;99514.97;;;-0.45;100.00
55070;BME280;40967;52.070;8.596;2023-03-11T04:23:36;99529.47;;;-0.41;100.00
55070;BME280;40967;52.070;8.596;2023-03-11T04:26:02;99530.06;;;-0.39;100.00
55070;BME280;40967;52.070;8.596;2023-03-11T04:28:27;99531.22;;;-0.35;100.00
55070;BME280;40967;52.070;8.596;2023-03-11T04:30:53;99535.19;;;-0.37;100.00
55070;BME280;40967;52.070;8.596;2023-03-11T04:33:18;99535.41;;;-0.39;100.00
55070;BME280;40967;52.070;8.596;2023-03-11T04:35:43;99523.78;;;-0.44;100.00
55070;BME280;40967;52.070;8.596;2023-03-11T04:38:09;99520.00;;;-0.55;100.00
55070;BME280;40967;52.070;8.596;2023-03-11T04:40:36;99538.84;;;-0.38;100.00
55070;BME280;40967;52.070;8.596;2023-03-11T04:43:01;99541.31;;;-0.37;100.00
55070;BME280;40967;52.070;8.596;2023-03-11T04:45:27;99536.41;;;-0.40;100.00
55070;BME280;40967;52.070;8.596;2023-03-11T04:47:52;99555.22;;;-0.35;100.00
55070;BME280;40967;52.070;8.596;2023-03-11T04:50:18;99565.50;;;-0.38;100.00
55070;BME280;40967;52.070;8.596;2023-03-11T04:52:44;99573.31;;;-0.37;100.00
55070;BME280;40967;52.070;8.596;2023-03-11T04:55:09;99565.00;;;-0.47;100.00
55070;BME280;40967;52.070;8.596;2023-03-11T04:57:35;99550.88;;;-0.47;100.00
55070;BME280;40967;52.070;8.596;2023-03-11T05:00:02;99569.66;;;-0.42;100.00
55070;BME280;40967;52.070;8.596;2023-03-11T05:02:30;99575.75;;;-0.35;100.00
55070;BME280;40967;52.070;8.596;2023-03-11T05:04:55;99581.44;;;-0.32;100.00
55070;BME280;40967;52.070;8.596;2023-03-11T05:07:21;99543.91;;;-0.48;100.00
55070;BME280;40967;52.070;8.596;2023-03-11T05:09:46;99580.25;;;-0.36;100.00
55070;BME280;40967;52.070;8.596;2023-03-11T05:12:12;99565.81;;;-0.46;100.00
55070;BME280;40967;52.070;8.596;2023-03-11T05:14:37;99569.06;;;-0.44;100.00
55070;BME280;40967;52.070;8.596;2023-03-11T05:17:08;99574.09;;;-0.54;100.00
55070;BME280;40967;52.070;8.596;2023-03-11T05:19:44;99594.97;;;-0.51;100.00
55070;BME280;40967;52.070;8.596;2023-03-11T05:22:10;99588.03;;;-0.52;100.00
55070;BME280;40967;52.070;8.596;2023-03-11T05:24:36;99581.94;;;-0.59;100.00
55070;BME280;40967;52.070;8.596;2023-03-11T05:27:02;99595.56;;;-0.49;100.00
55070;BME280;40967;52.070;8.596;2023-03-11T05:29:28;99585.94;;;-0.50;100.00
55070;BME280;40967;52.070;8.596;2023-03-11T05:31:54;99600.53;;;-0.53;100.00
55070;BME280;40967;52.070;8.596;2023-03-11T05:34:19;99595.41;;;-0.54;100.00
55070;BME280;40967;52.070;8.596;2023-03-11T05:36:45;99592.16;;;-0.56;100.00
55070;BME280;40967;52.070;8.596;2023-03-11T05:39:11;99599.09;;;-0.55;100.00
55070;BME280;40967;52.070;8.596;2023-03-11T05:41:36;99599.41;;;-0.63;100.00
55070;BME280;40967;52.070;8.596;2023-03-11T05:44:02;99611.09;;;-0.64;100.00
55070;BME280;40967;52.070;8.596;2023-03-11T05:46:28;99601.59;;;-0.78;100.00
55070;BME280;40967;52.070;8.596;2023-03-11T05:48:53;99619.72;;;-0.69;100.00
55070;BME280;40967;52.070;8.596;2023-03-11T05:51:19;99628.16;;;-0.72;100.00
55070;BME280;40967;52.070;8.596;2023-03-11T05:53:46;99629.19;;;-0.73;100.00
55070;BME280;40967;52.070;8.596;2023-03-11T05:56:15;99631.66;;;-0.71;100.00
55070;BME280;40967;52.070;8.596;2023-03-11T05:58:41;99633.72;;;-0.73;100.00
55070;BME280;40967;52.070;8.596;2023-03-11T06:01:11;99634.72;;;-0.74;100.00
55070;BME280;40967;52.070;8.596;2023-03-11T06:03:37;99634.78;;;-0.81;100.00
55070;BME280;40967;52.070;8.596;2023-03-11T06:06:05;99642.88;;;-0.69;100.00
55070;BME280;40967;52.070;8.596;2023-03-11T06:08:30;99645.00;;;-0.78;100.00
55070;BME280;40967;52.070;8.596;2023-03-11T06:11:07;99655.28;;;-0.81;100.00
55070;BME280;40967;52.070;8.596;2023-03-11T06:13:33;99649.00;;;-0.87;100.00
55070;BME280;40967;52.070;8.596;2023-03-11T06:15:59;99661.84;;;-0.84;100.00
55070;BME280;40967;52.070;8.596;2023-03-11T06:18:25;99663.25;;;-0.81;100.00
55070;BME280;40967;52.070;8.596;2023-03-11T06:20:51;99662.03;;;-0.79;100.00
55070;BME280;40967;52.070;8.596;2023-03-11T06:23:16;99658.16;;;-0.83;100.00
55070;BME280;40967;52.070;8.596;2023-03-11T06:25:42;99659.34;;;-0.79;100.00
55070;BME280;40967;52.070;8.596;2023-03-11T06:28:08;99672.22;;;-0.76;100.00
55070;BME280;40967;52.070;8.596;2023-03-11T06:30:33;99668.75;;;-0.76;100.00
55070;BME280;40967;52.070;8.596;2023-03-11T06:32:59;99688.97;;;-0.69;100.00
55070;BME280;40967;52.070;8.596;2023-03-11T06:35:24;99686.31;;;-0.69;100.00
55070;BME280;40967;52.070;8.596;2023-03-11T06:37:50;99687.78;;;-0.73;100.00
55070;BME280;40967;52.070;8.596;2023-03-11T06:40:15;99688.38;;;-0.71;100.00
55070;BME280;40967;52.070;8.596;2023-03-11T06:42:44;99696.13;;;-0.63;100.00
55070;BME280;40967;52.070;8.596;2023-03-11T06:45:10;99703.88;;;-0.61;100.00
55070;BME280;40967;52.070;8.596;2023-03-11T06:47:36;99705.88;;;-0.57;100.00
55070;BME280;40967;52.070;8.596;2023-03-11T06:50:01;99699.34;;;-0.61;100.00
55070;BME280;40967;52.070;8.596;2023-03-11T06:52:31;99714.69;;;-0.56;100.00
55070;BME280;40967;52.070;8.596;2023-03-11T06:54:56;99716.69;;;-0.52;100.00
55070;BME280;40967;52.070;8.596;2023-03-11T06:57:22;99725.13;;;-0.55;100.00
55070;BME280;40967;52.070;8.596;2023-03-11T06:59:48;99722.03;;;-0.52;100.00
55070;BME280;40967;52.070;8.596;2023-03-11T07:02:13;99736.63;;;-0.54;100.00
55070;BME280;40967;52.070;8.596;2023-03-11T07:04:39;99740.69;;;-0.52;100.00
55070;BME280;40967;52.070;8.596;2023-03-11T07:07:04;99744.00;;;-0.56;100.00
55070;BME280;40967;52.070;8.596;2023-03-11T07:09:30;99742.75;;;-0.54;100.00
55070;BME280;40967;52.070;8.596;2023-03-11T07:11:55;99742.34;;;-0.51;100.00
55070;BME280;40967;52.070;8.596;2023-03-11T07:14:20;99751.72;;;-0.48;100.00
55070;BME280;40967;52.070;8.596;2023-03-11T07:16:46;99756.25;;;-0.49;100.00
55070;BME280;40967;52.070;8.596;2023-03-11T07:19:13;99758.31;;;-0.51;100.00
55070;BME280;40967;52.070;8.596;2023-03-11T07:21:40;99756.66;;;-0.52;100.00
55070;BME280;40967;52.070;8.596;2023-03-11T07:24:06;99758.31;;;-0.51;100.00
55070;BME280;40967;52.070;8.596;2023-03-11T07:26:33;99768.38;;;-0.53;100.00
55070;BME280;40967;52.070;8.596;2023-03-11T07:28:59;99774.69;;;-0.47;100.00
55070;BME280;40967;52.070;8.596;2023-03-11T07:31:30;99772.63;;;-0.45;100.00
55070;BME280;40967;52.070;8.596;2023-03-11T07:33:57;99777.56;;;-0.49;100.00
55070;BME280;40967;52.070;8.596;2023-03-11T07:36:24;99768.38;;;-0.53;100.00
55070;BME280;40967;52.070;8.596;2023-03-11T07:38:58;99794.19;;;-0.53;100.00
55070;BME280;40967;52.070;8.596;2023-03-11T07:41:24;99790.13;;;-0.56;100.00
55070;BME280;40967;52.070;8.596;2023-03-11T07:43:53;99794.84;;;-0.58;100.00
55070;BME280;40967;52.070;8.596;2023-03-11T07:46:20;99809.16;;;-0.52;100.00
55070;BME280;40967;52.070;8.596;2023-03-11T07:48:47;99785.84;;;-0.63;100.00
55070;BME280;40967;52.070;8.596;2023-03-11T07:51:16;99815.63;;;-0.42;100.00
55070;BME280;40967;52.070;8.596;2023-03-11T07:53:42;99818.88;;;-0.40;100.00
55070;BME280;40967;52.070;8.596;2023-03-11T07:56:15;99812.56;;;-0.14;100.00
55070;BME280;40967;52.070;8.596;2023-03-11T07:58:44;99831.19;;;0.11;100.00
55070;BME280;40967;52.070;8.596;2023-03-11T08:01:11;99821.88;;;0.20;100.00
55070;BME280;40967;52.070;8.596;2023-03-11T08:03:37;99840.84;;;0.36;100.00
55070;BME280;40967;52.070;8.596;2023-03-11T08:06:18;99835.72;;;0.35;100.00
55070;BME280;40967;52.070;8.596;2023-03-11T08:08:44;99841.50;;;0.50;100.00
55070;BME280;40967;52.070;8.596;2023-03-11T08:11:11;99848.72;;;0.67;100.00
55070;BME280;40967;52.070;8.596;2023-03-11T08:13:40;99849.97;;;0.65;100.00
55070;BME280;40967;52.070;8.596;2023-03-11T08:16:07;99862.78;;;0.56;100.00
55070;BME280;40967;52.070;8.596;2023-03-11T08:18:45;99861.16;;;0.55;100.00
55070;BME280;40967;52.070;8.596;2023-03-11T08:21:19;99863.84;;;0.55;100.00
55070;BME280;40967;52.070;8.596;2023-03-11T08:23:46;99864.81;;;0.61;100.00
55070;BME280;40967;52.070;8.596;2023-03-11T08:26:17;99869.28;;;0.85;100.00
55070;BME280;40967;52.070;8.596;2023-03-11T08:28:42;99862.00;;;0.92;100.00
55070;BME280;40967;52.070;8.596;2023-03-11T08:31:15;99870.66;;;0.87;100.00
55070;BME280;40967;52.070;8.596;2023-03-11T08:33:43;99866.47;;;0.80;100.00
55070;BME280;40967;52.070;8.596;2023-03-11T08:36:09;99873.19;;;1.00;100.00
55070;BME280;40967;52.070;8.596;2023-03-11T08:38:34;99864.97;;;1.02;100.00
55070;BME280;40967;52.070;8.596;2023-03-11T08:41:00;99872.16;;;1.20;100.00
55070;BME280;40967;52.070;8.596;2023-03-11T08:43:26;99876.56;;;1.26;100.00
55070;BME280;40967;52.070;8.596;2023-03-11T08:45:51;99879.53;;;1.36;100.00
55070;BME280;40967;52.070;8.596;2023-03-11T08:48:16;99881.72;;;1.57;100.00
55070;BME280;40967;52.070;8.596;2023-03-11T08:50:42;99874.91;;;1.72;100.00
55070;BME280;40967;52.070;8.596;2023-03-11T08:53:08;99889.13;;;1.84;99.28
55070;BME280;40967;52.070;8.596;2023-03-11T08:55:33;99888.81;;;1.92;98.44
55070;BME280;40967;52.070;8.596;2023-03-11T08:57:59;99893.09;;;1.82;95.22
55070;BME280;40967;52.070;8.596;2023-03-11T09:00:24;99899.66;;;1.68;93.29
55070;BME280;40967;52.070;8.596;2023-03-11T09:02:50;99876.94;;;1.47;93.56
55070;BME280;40967;52.070;8.596;2023-03-11T09:05:15;99908.88;;;1.72;95.42
55070;BME280;40967;52.070;8.596;2023-03-11T09:07:41;99899.22;;;1.71;93.51
55070;BME280;40967;52.070;8.596;2023-03-11T09:10:07;99911.31;;;1.73;93.34
55070;BME280;40967;52.070;8.596;2023-03-11T09:12:32;99906.09;;;1.78;94.31
55070;BME280;40967;52.070;8.596;2023-03-11T09:14:58;99911.25;;;1.91;93.92
55070;BME280;40967;52.070;8.596;2023-03-11T09:17:23;99903.56;;;1.83;91.90
55070;BME280;40967;52.070;8.596;2023-03-11T09:19:49;99911.53;;;2.01;92.55
55070;BME280;40967;52.070;8.596;2023-03-11T09:22:14;99922.00;;;2.14;91.89
55070;BME280;40967;52.070;8.596;2023-03-11T09:24:40;99932.50;;;2.16;90.75
55070;BME280;40967;52.070;8.596;2023-03-11T09:27:05;99906.97;;;2.02;91.15
55070;BME280;40967;52.070;8.596;2023-03-11T09:29:31;99929.63;;;2.41;93.14
55070;BME280;40967;52.070;8.596;2023-03-11T09:31:57;99922.31;;;2.48;91.37
55070;BME280;40967;52.070;8.596;2023-03-11T09:34:25;99928.22;;;2.38;90.20
55070;BME280;40967;52.070;8.596;2023-03-11T09:36:51;99924.84;;;2.31;89.74
55070;BME280;40967;52.070;8.596;2023-03-11T09:39:16;99916.34;;;2.34;91.36
55070;BME280;40967;52.070;8.596;2023-03-11T09:41:53;99911.59;;;2.48;92.53
55070;BME280;40967;52.070;8.596;2023-03-11T09:44:26;99900.88;;;2.48;91.52
55070;BME280;40967;52.070;8.596;2023-03-11T09:50:20;99921.03;;;2.96;93.09
55070;BME280;40967;52.070;8.596;2023-03-11T09:52:43;99931.34;;;3.27;92.80
55070;BME280;40967;52.070;8.596;2023-03-11T09:55:33;99929.94;;;3.25;89.46
55070;BME280;40967;52.070;8.596;2023-03-11T09:58:09;99913.66;;;3.15;89.38
55070;BME280;40967;52.070;8.596;2023-03-11T10:00:36;99915.84;;;3.29;89.11
55070;BME280;40967;52.070;8.596;2023-03-11T10:03:02;99922.91;;;3.47;89.24
55070;BME280;40967;52.070;8.596;2023-03-11T10:05:30;99926.94;;;3.61;88.38
55070;BME280;40967;52.070;8.596;2023-03-11T10:08:11;99936.38;;;3.64;87.04
55070;BME280;40967;52.070;8.596;2023-03-11T10:10:43;99941.41;;;3.60;86.43
55070;BME280;40967;52.070;8.596;2023-03-11T10:13:36;99947.25;;;3.57;85.26
55070;BME280;40967;52.070;8.596;2023-03-11T10:16:08;99954.28;;;3.46;85.09
55070;BME280;40967;52.070;8.596;2023-03-11T10:26:43;99947.63;;;3.37;85.74
55070;BME280;40967;52.070;8.596;2023-03-11T10:29:29;99950.31;;;3.49;85.29
55070;BME280;40967;52.070;8.596;2023-03-11T10:32:05;99961.16;;;3.54;84.76
55070;BME280;40967;52.070;8.596;2023-03-11T10:34:42;99962.06;;;3.48;84.33
55070;BME280;40967;52.070;8.596;2023-03-11T10:37:13;99966.59;;;3.59;86.20
55070;BME280;40967;52.070;8.596;2023-03-11T10:39:41;99962.41;;;3.63;85.26
55070;BME280;40967;52.070;8.596;2023-03-11T10:42:17;99971.72;;;3.61;84.78
55070;BME280;40967;52.070;8.596;2023-03-11T10:44:44;99970.44;;;3.63;84.88
55070;BME280;40967;52.070;8.596;2023-03-11T10:47:18;99969.38;;;3.64;84.11
55070;BME280;40967;52.070;8.596;2023-03-11T10:55:32;99978.31;;;3.81;86.92
55070;BME280;40967;52.070;8.596;2023-03-11T10:58:06;99980.75;;;3.83;86.21
55070;BME280;40967;52.070;8.596;2023-03-11T11:00:36;99967.97;;;3.62;83.97
55070;BME280;40967;52.070;8.596;2023-03-11T11:03:01;99979.34;;;3.52;83.39
55070;BME280;40967;52.070;8.596;2023-03-11T11:05:32;99976.00;;;3.33;84.33
55070;BME280;40967;52.070;8.596;2023-03-11T11:08:05;99978.78;;;3.38;86.52
55070;BME280;40967;52.070;8.596;2023-03-11T11:10:34;99969.44;;;3.41;87.91
55070;BME280;40967;52.070;8.596;2023-03-11T11:13:21;99938.34;;;3.17;85.44
55070;BME280;40967;52.070;8.596;2023-03-11T11:18:20;99976.66;;;3.52;86.02
55070;BME280;40967;52.070;8.596;2023-03-11T11:21:00;99984.75;;;3.69;86.28
55070;BME280;40967;52.070;8.596;2023-03-11T11:26:23;99981.97;;;3.75;85.43
55070;BME280;40967;52.070;8.596;2023-03-11T11:31:38;99978.41;;;3.86;84.67
55070;BME280;40967;52.070;8.596;2023-03-11T11:34:26;99979.56;;;3.90;84.78
55070;BME280;40967;52.070;8.596;2023-03-11T11:36:51;99982.09;;;3.97;83.87
55070;BME280;40967;52.070;8.596;2023-03-11T11:39:19;99983.41;;;3.94;84.27
55070;BME280;40967;52.070;8.596;2023-03-11T11:41:48;99988.47;;;4.07;85.14
55070;BME280;40967;52.070;8.596;2023-03-11T11:44:17;99970.50;;;4.08;83.91
55070;BME280;40967;52.070;8.596;2023-03-11T11:52:05;99980.00;;;3.99;82.53
55070;BME280;40967;52.070;8.596;2023-03-11T11:57:44;99981.81;;;3.82;83.01
55070;BME280;40967;52.070;8.596;2023-03-11T12:00:29;99979.13;;;3.82;83.25
55070;BME280;40967;52.070;8.596;2023-03-11T12:08:58;99986.56;;;3.52;79.68
55070;BME280;40967;52.070;8.596;2023-03-11T12:11:43;99974.44;;;3.49;79.56
55070;BME280;40967;52.070;8.596;2023-03-11T12:30:20;99976.28;;;4.44;78.83
55070;BME280;40967;52.070;8.596;2023-03-11T12:32:58;99977.19;;;4.50;78.38
55070;BME280;40967;52.070;8.596;2023-03-11T12:35:31;99970.56;;;4.57;77.40
55070;BME280;40967;52.070;8.596;2023-03-11T12:46:10;99974.47;;;5.00;77.23
55070;BME280;40967;52.070;8.596;2023-03-11T12:49:10;99975.25;;;5.17;77.38
55070;BME280;40967;52.070;8.596;2023-03-11T12:51:38;99968.91;;;5.23;77.70
55070;BME280;40967;52.070;8.596;2023-03-11T12:54:25;99966.03;;;5.51;76.02
55070;BME280;40967;52.070;8.596;2023-03-11T12:56:55;99968.72;;;5.51;74.47
55070;BME280;40967;52.070;8.596;2023-03-11T13:05:26;99983.38;;;5.38;71.30
55070;BME280;40967;52.070;8.596;2023-03-11T13:07:59;99984.06;;;5.50;71.74
55070;BME280;40967;52.070;8.596;2023-03-11T13:10:39;99981.47;;;5.39;69.86
55070;BME280;40967;52.070;8.596;2023-03-11T13:15:46;99985.94;;;5.50;70.57
55070;BME280;40967;52.070;8.596;2023-03-11T13:33:53;99998.63;;;5.16;70.13
55070;BME280;40967;52.070;8.596;2023-03-11T13:41:40;99987.63;;;5.77;70.74
55070;BME280;40967;52.070;8.596;2023-03-11T13:44:20;100002.25;;;5.65;68.35
55070;BME280;40967;52.070;8.596;2023-03-11T13:46:52;99996.13;;;5.48;70.32
55070;BME280;40967;52.070;8.596;2023-03-11T13:49:27;100002.66;;;5.52;70.83
55070;BME280;40967;52.070;8.596;2023-03-11T13:51:56;99993.44;;;5.48;71.14
55070;BME280;40967;52.070;8.596;2023-03-11T13:54:34;100013.59;;;5.45;70.61
55070;BME280;40967;52.070;8.596;2023-03-11T13:57:02;99996.75;;;5.33;69.79
55070;BME280;40967;52.070;8.596;2023-03-11T13:59:33;100001.69;;;5.41;70.97
55070;BME280;40967;52.070;8.596;2023-03-11T14:04:32;100016.41;;;5.55;69.06
55070;BME280;40967;52.070;8.596;2023-03-11T14:06:59;100000.38;;;5.44;68.52
55070;BME280;40967;52.070;8.596;2023-03-11T14:09:26;100017.97;;;5.51;69.16
55070;BME280;40967;52.070;8.596;2023-03-11T14:11:53;100018.53;;;5.53;68.69
55070;BME280;40967;52.070;8.596;2023-03-11T14:14:26;100022.69;;;5.61;68.38
55070;BME280;40967;52.070;8.596;2023-03-11T14:16:54;100015.97;;;5.63;68.51
55070;BME280;40967;52.070;8.596;2023-03-11T14:19:20;100005.72;;;5.60;66.81
55070;BME280;40967;52.070;8.596;2023-03-11T14:21:48;100026.69;;;5.58;61.38
55070;BME280;40967;52.070;8.596;2023-03-11T14:24:21;100030.53;;;5.46;63.93
55070;BME280;40967;52.070;8.596;2023-03-11T14:26:49;100018.34;;;5.38;64.14
55070;BME280;40967;52.070;8.596;2023-03-11T14:29:20;100030.78;;;5.44;65.73
55070;BME280;40967;52.070;8.596;2023-03-11T14:31:48;100020.59;;;5.46;66.48
55070;BME280;40967;52.070;8.596;2023-03-11T14:34:20;100035.50;;;5.54;66.63
55070;BME280;40967;52.070;8.596;2023-03-11T14:44:34;100039.09;;;5.43;66.12
55070;BME280;40967;52.070;8.596;2023-03-11T14:47:10;100041.47;;;5.39;64.90
55070;BME280;40967;52.070;8.596;2023-03-11T14:49:36;100038.53;;;5.41;65.36
55070;BME280;40967;52.070;8.596;2023-03-11T14:52:08;100052.06;;;5.46;65.39
55070;BME280;40967;52.070;8.596;2023-03-11T14:54:36;100045.25;;;5.38;64.83
55070;BME280;40967;52.070;8.596;2023-03-11T14:57:51;100045.16;;;5.33;64.20